Time;durP1;ratioP1;P1;durP2;ratioP2;P2;SDS_P1;SDS_P2;PMS_P1;PMS_P2;Temp;Humidity;BMP_temperature;BMP_pressure;BME280_temperature;BME280_humidity;BME280_pressure;Samples;Min_cycle;Max_cycle;Signal;HPM_P1;HPM_P2
2022/03/06 00:00:40;;;;;;;34.40;18.10;;;;;;;;;;5033024;28;20022;-61
2022/03/06 00:03:06;;;;;;;31.85;18.83;;;;;;;;;;5036622;28;20473;-62
2022/03/06 00:05:32;;;;;;;33.70;18.20;;;;;;;;;;5049684;28;20048;-61
2022/03/06 00:07:59;;;;;;;31.88;17.42;;;;;;;;;;5036052;28;20057;-61
2022/03/06 00:10:25;;;;;;;36.35;19.70;;;;;;;;;;5036783;28;20240;-61
2022/03/06 00:12:51;;;;;;;32.40;18.15;;;;;;;;;;5049198;28;20076;-58
2022/03/06 00:15:18;;;;;;;35.55;19.55;;;;;;;;;;5046005;28;20572;-61
2022/03/06 00:17:44;;;;;;;35.33;20.40;;;;;;;;;;5042645;28;21178;-60
2022/03/06 00:20:10;;;;;;;34.97;19.50;;;;;;;;;;5039846;28;20495;-60
2022/03/06 00:22:37;;;;;;;34.47;19.17;;;;;;;;;;5045557;28;20046;-61
2022/03/06 00:25:06;;;;;;;39.08;20.42;;;;;;;;;;5035169;28;20455;-60
2022/03/06 00:27:32;;;;;;;38.70;21.20;;;;;;;;;;5041168;28;20119;-61
2022/03/06 00:29:58;;;;;;;37.42;19.95;;;;;;;;;;5038431;28;20112;-60
2022/03/06 00:32:25;;;;;;;37.38;19.63;;;;;;;;;;5043632;28;20521;-61
2022/03/06 00:34:51;;;;;;;34.97;19.95;;;;;;;;;;5028277;28;20025;-61
2022/03/06 00:37:17;;;;;;;38.60;20.88;;;;;;;;;;5033426;28;20025;-62
2022/03/06 00:39:43;;;;;;;40.90;20.05;;;;;;;;;;5037128;28;20083;-59
2022/03/06 00:42:10;;;;;;;38.35;20.30;;;;;;;;;;5038092;28;20025;-60
2022/03/06 00:44:36;;;;;;;39.28;21.73;;;;;;;;;;5040940;28;20103;-59
2022/03/06 00:47:02;;;;;;;40.33;20.50;;;;;;;;;;5045799;28;20036;-61
2022/03/06 00:49:28;;;;;;;37.38;19.95;;;;;;;;;;5030590;28;20034;-60
2022/03/06 00:51:54;;;;;;;43.58;21.75;;;;;;;;;;5040283;28;20051;-61
2022/03/06 00:54:20;;;;;;;36.80;20.52;;;;;;;;;;5040670;28;20498;-58
2022/03/06 00:56:46;;;;;;;37.67;20.88;;;;;;;;;;5044105;28;20026;-61
2022/03/06 00:59:12;;;;;;;43.33;22.25;;;;;;;;;;5037025;28;20056;-62
2022/03/06 01:01:39;;;;;;;41.25;20.35;;;;;;;;;;5040089;28;20030;-58
2022/03/06 01:04:05;;;;;;;44.45;20.10;;;;;;;;;;5034569;28;20037;-62
2022/03/06 01:06:31;;;;;;;41.03;21.90;;;;;;;;;;5036271;28;20048;-59
2022/03/06 01:08:57;;;;;;;39.22;20.52;;;;;;;;;;5041639;28;20303;-61
2022/03/06 01:11:23;;;;;;;39.67;21.00;;;;;;;;;;5048640;28;20021;-61
2022/03/06 01:13:49;;;;;;;39.42;20.85;;;;;;;;;;5043479;28;20025;-62
2022/03/06 01:16:15;;;;;;;41.78;21.13;;;;;;;;;;5048430;28;20101;-60
2022/03/06 01:18:41;;;;;;;40.55;21.83;;;;;;;;;;5045839;28;20336;-62
2022/03/06 01:21:07;;;;;;;40.55;21.90;;;;;;;;;;5040194;28;20505;-61
2022/03/06 01:23:35;;;;;;;39.55;20.95;;;;;;;;;;5049618;28;20043;-60
2022/03/06 01:26:01;;;;;;;40.47;21.30;;;;;;;;;;5035716;28;20548;-61
2022/03/06 01:28:27;;;;;;;38.85;22.85;;;;;;;;;;5049854;28;20261;-61
2022/03/06 01:30:52;;;;;;;41.47;22.63;;;1.40;99.90;;;;;;5050726;28;20941;-59
2022/03/06 01:33:18;;;;;;;41.47;21.52;;;1.30;99.90;;;;;;5051194;28;20198;-61
2022/03/06 01:35:43;;;;;;;42.05;21.42;;;1.20;99.90;;;;;;5038455;28;20025;-61
2022/03/06 01:38:09;;;;;;;43.60;23.25;;;1.10;99.90;;;;;;5041051;28;20029;-60
2022/03/06 01:40:35;;;;;;;41.80;21.85;;;1.30;99.90;;;;;;5036285;28;20040;-62
2022/03/06 01:43:00;;;;;;;39.40;21.23;;;1.20;99.90;;;;;;5046781;28;20116;-60
2022/03/06 01:45:26;;;;;;;40.15;21.75;;;1.30;99.90;;;;;;5042895;28;20695;-60
2022/03/06 01:47:55;;;;;;;43.30;22.58;;;1.30;99.90;;;;;;5048681;28;20302;-62
2022/03/06 01:50:29;;;;;;;45.90;23.63;;;1.20;99.90;;;;;;5036982;28;20034;-61
2022/03/06 01:52:56;;;;;;;41.92;22.10;;;1.20;99.90;;;;;;5038653;28;20316;-62
2022/03/06 01:55:24;;;;;;;39.95;21.88;;;0.90;99.90;;;;;;5033705;28;20044;-61
2022/03/06 01:57:51;;;;;;;37.17;22.35;;;0.90;99.90;;;;;;5033419;28;20036;-61
2022/03/06 02:00:21;;;;;;;44.33;20.83;;;1.00;99.90;;;;;;5045935;28;20639;-61
2022/03/06 02:02:46;;;;;;;41.72;23.20;;;1.10;99.90;;;;;;5041758;28;20116;-61
2022/03/06 02:05:12;;;;;;;41.28;21.67;;;1.00;99.90;;;;;;5045984;28;20105;-59
2022/03/06 02:07:38;;;;;;;44.88;23.55;;;0.90;99.90;;;;;;5037489;28;20080;-61
2022/03/06 02:10:05;;;;;;;44.75;23.15;;;1.10;99.90;;;;;;5042577;28;20025;-58
2022/03/06 02:12:31;;;;;;;42.83;23.27;;;1.10;99.90;;;;;;5041692;28;20037;-60
2022/03/06 02:14:59;;;;;;;40.53;22.50;;;1.10;99.90;;;;;;5038763;28;20017;-61
2022/03/06 02:17:25;;;;;;;41.05;22.02;;;1.90;99.90;;;;;;5044255;28;20078;-61
2022/03/06 02:20:03;;;;;;;38.65;21.17;;;1.10;99.90;;;;;;5044628;28;20021;-60
2022/03/06 02:22:35;;;;;;;40.15;23.00;;;1.20;99.90;;;;;;5050752;28;20144;-60
2022/03/06 02:25:07;;;;;;;40.72;22.83;;;1.20;99.90;;;;;;5034792;28;20108;-59
2022/03/06 02:27:33;;;;;;;37.63;21.95;;;1.10;99.90;;;;;;5045233;28;20529;-58
2022/03/06 02:29:59;;;;;;;40.70;22.52;;;0.90;99.90;;;;;;5041270;28;20147;-59
2022/03/06 02:32:25;;;;;;;42.67;22.83;;;0.80;99.90;;;;;;5041177;28;20036;-59
2022/03/06 02:34:52;;;;;;;40.20;22.67;;;1.10;99.90;;;;;;5046523;28;20056;-62
2022/03/06 02:37:20;;;;;;;41.13;22.88;;;1.60;99.90;;;;;;5046289;28;20715;-60
2022/03/06 02:39:46;;;;;;;38.75;23.05;;;0.80;99.90;;;;;;5036422;28;20050;-61
2022/03/06 02:42:30;;;;;;;39.13;22.35;;;0.70;99.90;;;;;;5040663;28;20029;-62
2022/03/06 02:44:58;;;;;;;41.03;22.45;;;0.70;99.90;;;;;;5035286;28;20029;-60
2022/03/06 02:47:25;;;;;;;38.45;22.67;;;0.60;99.90;;;;;;5039833;28;20550;-61
2022/03/06 02:49:52;;;;;;;42.60;22.40;;;;;;;;;;5050086;28;20034;-58
2022/03/06 02:52:19;;;;;;;46.03;23.85;;;;;;;;;;5046249;28;20570;-61
2022/03/06 02:54:45;;;;;;;39.58;22.35;;;;;;;;;;5050882;28;20533;-62
2022/03/06 02:57:12;;;;;;;45.30;23.55;;;;;;;;;;5033805;28;20048;-61
2022/03/06 02:59:39;;;;;;;43.33;23.23;;;0.80;99.90;;;;;;5041014;28;20095;-60
2022/03/06 03:02:04;;;;;;;44.78;22.63;;;1.30;99.90;;;;;;5047130;28;20021;-61
2022/03/06 03:04:37;;;;;;;39.95;23.17;;;0.90;99.90;;;;;;5044902;28;20036;-62
2022/03/06 03:07:02;;;;;;;31.42;17.70;;;1.00;99.90;;;;;;5028070;28;20037;-61
2022/03/06 03:09:28;;;;;;;37.40;20.38;;;1.00;99.90;;;;;;5038951;28;20409;-59
2022/03/06 03:11:57;;;;;;;37.88;21.92;;;0.70;99.90;;;;;;5042626;28;20075;-59
2022/03/06 03:14:23;;;;;;;42.05;22.85;;;0.60;99.90;;;;;;5043406;28;20029;-61
2022/03/06 03:16:49;;;;;;;42.72;20.98;;;0.70;99.90;;;;;;5036922;28;20044;-62
2022/03/06 03:19:15;;;;;;;44.17;23.42;;;0.60;99.90;;;;;;5046372;28;20420;-58
2022/03/06 03:21:41;;;;;;;43.55;22.45;;;0.40;99.90;;;;;;5034501;28;20025;-61
2022/03/06 03:24:07;;;;;;;39.25;21.55;;;0.40;99.90;;;;;;5040615;28;20060;-60
2022/03/06 03:26:33;;;;;;;44.28;22.40;;;0.20;99.90;;;;;;5030395;28;20025;-57
2022/03/06 03:28:58;;;;;;;38.75;21.17;;;0.10;99.90;;;;;;5044176;28;20647;-61
2022/03/06 03:31:24;;;;;;;42.10;22.70;;;0.10;99.90;;;;;;5042687;28;20417;-59
2022/03/06 03:33:50;;;;;;;39.20;20.50;;;0.00;99.90;;;;;;5041754;28;20505;-58
2022/03/06 03:36:15;;;;;;;39.05;21.30;;;0.10;99.90;;;;;;5034357;28;20033;-61
2022/03/06 03:38:41;;;;;;;37.67;21.00;;;0.20;99.90;;;;;;5046782;28;20040;-61
2022/03/06 03:41:08;;;;;;;40.92;22.77;;;0.20;99.90;;;;;;5050927;28;20028;-58
2022/03/06 03:43:33;;;;;;;39.55;22.15;;;0.40;99.90;;;;;;5042090;28;20028;-60
2022/03/06 03:45:59;;;;;;;40.50;21.23;;;0.30;99.90;;;;;;5044678;28;20479;-59
2022/03/06 03:48:29;;;;;;;37.72;22.23;;;0.30;99.90;;;;;;5038956;28;20028;-61
2022/03/06 03:50:56;;;;;;;43.97;22.83;;;0.40;99.90;;;;;;5036410;28;20493;-60
2022/03/06 03:53:22;;;;;;;39.40;22.23;;;0.10;99.90;;;;;;5034385;28;20435;-60
2022/03/06 03:55:48;;;;;;;36.20;21.25;;;0.30;99.90;;;;;;5038881;28;20040;-62
2022/03/06 03:58:14;;;;;;;41.25;22.33;;;0.30;99.90;;;;;;5038107;28;20040;-57
2022/03/06 04:00:42;;;;;;;39.30;21.77;;;0.40;99.90;;;;;;5036902;28;20040;-59
2022/03/06 04:03:07;;;;;;;38.38;21.15;;;0.10;99.90;;;;;;5049069;28;20111;-60
2022/03/06 04:05:33;;;;;;;39.00;21.95;;;0.10;99.90;;;;;;5032560;28;20048;-59
2022/03/06 04:07:59;;;;;;;38.97;21.50;;;0.20;99.90;;;;;;5045726;28;20037;-61
2022/03/06 04:10:24;;;;;;;41.97;23.23;;;0.10;99.90;;;;;;5028235;28;20571;-60
2022/03/06 04:12:50;;;;;;;39.47;22.05;;;0.10;99.90;;;;;;5042510;28;20043;-61
2022/03/06 04:15:15;;;;;;;41.90;22.35;;;0.00;99.90;;;;;;5035419;28;20037;-61
2022/03/06 04:17:41;;;;;;;36.67;20.58;;;0.00;99.90;;;;;;5048991;28;20057;-61
2022/03/06 04:20:07;;;;;;;38.08;21.17;;;-0.10;99.90;;;;;;5038432;28;20111;-61
2022/03/06 04:22:33;;;;;;;40.08;21.55;;;-0.40;99.90;;;;;;5045244;28;20052;-58
2022/03/06 04:24:59;;;;;;;41.25;22.17;;;-0.20;99.90;;;;;;5036449;28;20362;-62
2022/03/06 04:27:24;;;;;;;37.17;21.95;;;-0.10;99.90;;;;;;5038070;28;20050;-61
2022/03/06 04:29:50;;;;;;;44.95;22.13;;;-0.30;99.90;;;;;;5038997;28;20115;-60
2022/03/06 04:32:15;;;;;;;38.85;22.52;;;-0.20;99.90;;;;;;5036952;28;20052;-61
2022/03/06 04:34:41;;;;;;;38.92;22.42;;;0.00;99.90;;;;;;5034381;28;20040;-61
2022/03/06 04:37:06;;;;;;;41.17;22.23;;;0.10;99.90;;;;;;5047551;28;20524;-62
2022/03/06 04:39:32;;;;;;;38.58;22.38;;;0.20;99.90;;;;;;5037444;28;20035;-57
2022/03/06 04:41:58;;;;;;;40.40;22.95;;;-0.10;99.90;;;;;;5039311;28;20454;-62
2022/03/06 04:44:23;;;;;;;39.50;21.23;;;-0.10;99.90;;;;;;5034520;28;20029;-57
2022/03/06 04:46:49;;;;;;;37.50;21.25;;;-0.20;99.90;;;;;;5042357;28;20025;-59
2022/03/06 04:49:15;;;;;;;40.28;21.25;;;-0.30;99.90;;;;;;5032792;28;20044;-61
2022/03/06 04:51:40;;;;;;;41.83;24.13;;;-0.60;99.90;;;;;;5038163;28;20033;-58
2022/03/06 04:54:07;;;;;;;43.92;22.38;;;-0.50;99.90;;;;;;5037671;28;20041;-58
2022/03/06 04:56:33;;;;;;;42.40;22.42;;;-0.30;99.90;;;;;;5036937;28;20218;-59
2022/03/06 04:58:58;;;;;;;39.90;22.20;;;-0.50;99.90;;;;;;5047118;28;20389;-61
2022/03/06 05:01:24;;;;;;;41.88;22.45;;;-0.60;99.90;;;;;;5038992;28;20031;-61
2022/03/06 05:03:50;;;;;;;42.28;22.15;;;-0.40;99.90;;;;;;5042462;28;20354;-61
2022/03/06 05:06:15;;;;;;;37.58;21.77;;;-0.20;99.90;;;;;;5044339;28;20382;-61
2022/03/06 05:08:41;;;;;;;41.83;22.25;;;-0.40;99.90;;;;;;5051402;28;20033;-62
2022/03/06 05:11:06;;;;;;;40.35;22.73;;;-0.40;99.90;;;;;;5043764;28;20112;-62
2022/03/06 05:13:33;;;;;;;42.13;22.70;;;-0.30;99.90;;;;;;5045014;28;20497;-60
2022/03/06 05:15:58;;;;;;;42.85;23.65;;;-0.50;99.90;;;;;;5037148;28;20024;-60
2022/03/06 05:18:24;;;;;;;42.03;22.85;;;-0.40;99.90;;;;;;5037872;28;20029;-61
2022/03/06 05:20:49;;;;;;;41.78;21.83;;;-0.20;99.90;;;;;;5050763;28;20064;-61
2022/03/06 05:23:17;;;;;;;39.95;22.27;;;-0.30;99.90;;;;;;5053528;28;20036;-59
2022/03/06 05:25:43;;;;;;;40.35;22.02;;;-0.60;99.90;;;;;;5044793;28;20017;-61
2022/03/06 05:28:09;;;;;;;40.92;22.27;;;-0.80;99.90;;;;;;5046867;28;20071;-58
2022/03/06 05:30:35;;;;;;;42.08;22.98;;;-0.60;99.90;;;;;;5048111;28;20025;-61
2022/03/06 05:33:01;;;;;;;39.33;22.13;;;-0.60;99.90;;;;;;5048374;28;20662;-60
2022/03/06 05:35:26;;;;;;;40.72;21.52;;;-0.60;99.90;;;;;;5045420;28;20028;-61
2022/03/06 05:37:52;;;;;;;37.35;20.70;;;-0.60;99.90;;;;;;5035914;28;20021;-62
2022/03/06 05:40:19;;;;;;;43.05;23.30;;;-0.90;99.90;;;;;;5051538;28;20016;-61
2022/03/06 05:42:45;;;;;;;38.08;20.92;;;;;;;;;;5050456;28;20025;-58
2022/03/06 05:45:11;;;;;;;38.47;21.00;;;-0.90;99.90;;;;;;5054585;28;20039;-58
2022/03/06 05:47:37;;;;;;;42.63;22.90;;;-0.90;99.90;;;;;;5044909;28;20029;-61
2022/03/06 05:50:05;;;;;;;43.65;21.75;;;-1.10;99.90;;;;;;5045133;28;20591;-61
2022/03/06 05:52:31;;;;;;;42.65;22.38;;;-1.10;99.90;;;;;;5039047;28;20063;-61
2022/03/06 05:54:57;;;;;;;40.58;22.60;;;-1.10;99.90;;;;;;5046580;28;20142;-60
2022/03/06 05:57:24;;;;;;;36.55;21.02;;;-1.10;99.90;;;;;;5039352;28;20090;-61
2022/03/06 05:59:50;;;;;;;41.85;21.48;;;-1.10;99.90;;;;;;5039900;28;20091;-61
2022/03/06 06:02:15;;;;;;;37.05;20.83;;;-1.10;99.90;;;;;;5036074;28;20045;-60
2022/03/06 06:04:41;;;;;;;36.60;20.08;;;-0.90;99.90;;;;;;5039315;28;20479;-62
2022/03/06 06:07:07;;;;;;;36.33;20.40;;;-0.70;99.90;;;;;;5038713;28;20033;-59
2022/03/06 06:09:32;;;;;;;37.60;20.63;;;-0.50;99.90;;;;;;5035274;28;20397;-58
2022/03/06 06:11:58;;;;;;;37.95;21.33;;;-0.70;99.90;;;;;;5041427;28;20025;-59
2022/03/06 06:14:23;;;;;;;35.88;20.60;;;-0.90;99.90;;;;;;5046042;28;20074;-61
2022/03/06 06:16:49;;;;;;;36.97;20.90;;;-0.70;99.90;;;;;;5042177;28;20657;-61
2022/03/06 06:19:15;;;;;;;38.33;20.63;;;-0.60;99.90;;;;;;5044596;28;20425;-61
2022/03/06 06:21:43;;;;;;;35.38;20.15;;;-0.70;99.90;;;;;;5035119;28;20096;-61
2022/03/06 06:24:13;;;;;;;41.13;20.45;;;-0.60;99.90;;;;;;5044414;28;20169;-61
2022/03/06 06:26:39;;;;;;;40.03;22.05;;;-0.90;99.90;;;;;;5045755;28;20028;-61
2022/03/06 06:29:05;;;;;;;38.80;21.77;;;-0.60;99.90;;;;;;5043696;28;20021;-61
2022/03/06 06:31:31;;;;;;;39.58;21.45;;;-0.60;99.90;;;;;;5044541;28;20051;-61
2022/03/06 06:33:57;;;;;;;37.53;21.17;;;-0.40;99.90;;;;;;5043320;28;20024;-61
2022/03/06 06:36:23;;;;;;;34.85;20.58;;;-0.50;99.90;;;;;;5038694;28;20022;-60
2022/03/06 06:38:48;;;;;;;39.60;20.67;;;-0.50;99.90;;;;;;5044786;28;20031;-61
2022/03/06 06:41:14;;;;;;;37.95;22.05;;;-0.40;99.90;;;;;;5047608;28;20497;-60
2022/03/06 06:43:42;;;;;;;35.22;19.95;;;-0.40;99.90;;;;;;5038967;28;20631;-61
2022/03/06 06:46:08;;;;;;;35.25;21.15;;;-0.30;99.90;;;;;;5042998;28;20032;-61
2022/03/06 06:48:34;;;;;;;38.70;20.90;;;-0.40;99.90;;;;;;5035235;28;20493;-60
2022/03/06 06:50:59;;;;;;;35.28;20.77;;;-0.40;99.90;;;;;;5057779;28;20031;-59
2022/03/06 06:53:25;;;;;;;36.53;20.92;;;-0.30;99.90;;;;;;5048461;28;20097;-61
2022/03/06 06:55:51;;;;;;;41.63;20.70;;;-0.20;99.90;;;;;;5039688;28;20056;-61
2022/03/06 06:58:16;;;;;;;39.33;21.58;;;-0.30;99.90;;;;;;5038116;28;20282;-59
2022/03/06 07:00:42;;;;;;;34.97;20.98;;;-0.20;99.90;;;;;;5043648;28;20680;-61
2022/03/06 07:03:09;;;;;;;38.05;21.60;;;-0.30;99.90;;;;;;5043944;28;20120;-60
2022/03/06 07:05:35;;;;;;;34.30;20.08;;;0.00;99.90;;;;;;5047071;28;20481;-61
2022/03/06 07:08:00;;;;;;;34.70;20.25;;;-0.30;99.90;;;;;;5025706;28;20082;-60
2022/03/06 07:10:26;;;;;;;36.90;20.65;;;-0.40;99.90;;;;;;5037879;28;20493;-61
2022/03/06 07:12:55;;;;;;;33.60;19.23;;;-0.30;99.90;;;;;;5036977;28;20029;-61
2022/03/06 07:15:27;;;;;;;34.28;20.73;;;-0.20;99.90;;;;;;5034671;28;20029;-62
2022/03/06 07:17:55;;;;;;;37.65;20.55;;;0.10;99.90;;;;;;5036966;28;20052;-60
2022/03/06 07:20:21;;;;;;;34.35;20.30;;;0.10;99.90;;;;;;5041102;28;20681;-59
2022/03/06 07:22:46;;;;;;;35.33;20.08;;;0.20;99.90;;;;;;5044659;28;20032;-59
2022/03/06 07:25:12;;;;;;;39.08;21.25;;;0.10;99.90;;;;;;5038598;28;20067;-59
2022/03/06 07:27:38;;;;;;;32.88;20.48;;;0.60;99.90;;;;;;5040033;28;20036;-58
2022/03/06 07:30:03;;;;;;;32.53;20.02;;;0.70;99.90;;;;;;5038174;28;20409;-57
2022/03/06 07:32:29;;;;;;;35.08;20.70;;;0.50;99.90;;;;;;5038411;28;20036;-60
2022/03/06 07:34:55;;;;;;;31.83;19.25;;;0.80;99.90;;;;;;5036246;28;20044;-60
2022/03/06 07:37:20;;;;;;;32.35;19.30;;;0.30;99.90;;;;;;5040520;28;20052;-60
2022/03/06 07:39:46;;;;;;;33.65;20.52;;;0.30;99.90;;;;;;5043887;28;20036;-60
2022/03/06 07:42:11;;;;;;;31.48;19.42;;;0.60;99.90;;;;;;5033823;28;20029;-58
2022/03/06 07:44:37;;;;;;;33.55;20.45;;;0.50;99.90;;;;;;5033771;28;20025;-60
2022/03/06 07:47:04;;;;;;;36.33;19.80;;;;;;;;;;5034527;28;20021;-60
2022/03/06 07:49:30;;;;;;;31.75;18.85;;;;;;;;;;5032664;28;20064;-60
2022/03/06 07:51:56;;;;;;;32.95;20.50;;;0.50;99.90;;;;;;5038089;28;20101;-60
2022/03/06 07:54:21;;;;;;;31.52;18.45;;;0.50;99.90;;;;;;5033156;28;20069;-60
2022/03/06 07:56:48;;;;;;;32.05;19.73;;;0.80;99.90;;;;;;5037080;28;20029;-59
2022/03/06 07:59:14;;;;;;;33.10;20.88;;;0.80;99.90;;;;;;5033596;28;20025;-60
2022/03/06 08:01:40;;;;;;;36.55;21.77;;;0.80;99.90;;;;;;5036487;28;20116;-58
2022/03/06 08:04:05;;;;;;;32.67;20.80;;;0.90;99.90;;;;;;5035050;28;20030;-60
2022/03/06 08:06:31;;;;;;;29.58;19.25;;;0.90;99.90;;;;;;5036059;28;20489;-60
2022/03/06 08:08:57;;;;;;;33.72;20.42;;;;;;;;;;5042153;28;20466;-61
2022/03/06 08:11:25;;;;;;;28.70;18.08;;;;;;;;;;5041060;28;20427;-58
2022/03/06 08:13:53;;;;;;;29.63;19.20;;;;;;;;;;5037228;28;20021;-59
2022/03/06 08:16:19;;;;;;;31.40;19.17;;;;;;;;;;5042679;28;20032;-61
2022/03/06 08:18:46;;;;;;;32.55;19.00;;;;;;;;;;5033505;28;20110;-60
2022/03/06 08:21:13;;;;;;;32.35;20.45;;;;;;;;;;5041215;28;20022;-61
2022/03/06 08:23:40;;;;;;;31.75;19.45;;;;;;;;;;5048116;28;20053;-61
2022/03/06 08:26:08;;;;;;;37.00;20.92;;;;;;;;;;5040508;28;20061;-61
2022/03/06 08:28:34;;;;;;;33.63;20.65;;;;;;;;;;5042016;28;20485;-60
2022/03/06 08:31:00;;;;;;;31.15;20.33;;;;;;;;;;5047829;28;20082;-62
2022/03/06 08:33:28;;;;;;;29.80;19.40;;;;;;;;;;5044515;28;20507;-62
2022/03/06 08:35:53;;;;;;;31.08;19.50;;;1.00;99.90;;;;;;5041794;28;20043;-62
2022/03/06 08:38:19;;;;;;;30.83;19.23;;;1.70;99.90;;;;;;5044295;28;20029;-61
2022/03/06 08:40:45;;;;;;;32.10;19.88;;;1.80;99.90;;;;;;5052173;28;20028;-61
2022/03/06 08:43:10;;;;;;;32.30;20.17;;;1.50;99.90;;;;;;5050883;28;20029;-62
2022/03/06 08:45:37;;;;;;;38.20;20.40;;;;;;;;;;5043483;28;20463;-62
2022/03/06 08:48:05;;;;;;;30.92;19.95;;;;;;;;;;5047877;28;20529;-62
2022/03/06 08:50:32;;;;;;;32.80;19.10;;;;;;;;;;5045728;28;20025;-62
2022/03/06 08:52:59;;;;;;;31.85;19.40;;;;;;;;;;5045738;28;20028;-62
2022/03/06 08:55:24;;;;;;;31.52;19.63;;;2.10;99.90;;;;;;5053379;28;20024;-62
2022/03/06 08:57:50;;;;;;;33.53;19.20;;;2.40;99.90;;;;;;5042572;28;20028;-62
2022/03/06 09:00:16;;;;;;;32.33;18.60;;;2.40;99.90;;;;;;5047483;28;20029;-62
2022/03/06 09:02:41;;;;;;;30.60;18.65;;;2.40;99.90;;;;;;5054204;28;20033;-62
2022/03/06 09:05:07;;;;;;;28.67;20.40;;;2.30;99.90;;;;;;5044385;28;20029;-61
2022/03/06 09:07:33;;;;;;;33.47;20.23;;;2.30;99.90;;;;;;5040178;28;20769;-59
2022/03/06 09:09:58;;;;;;;29.63;19.67;;;2.30;99.90;;;;;;5041279;28;20029;-62
2022/03/06 09:12:26;;;;;;;30.38;19.20;;;2.20;99.90;;;;;;5047517;28;20031;-60
2022/03/06 09:14:52;;;;;;;29.15;18.05;;;2.40;99.90;;;;;;5042190;28;20067;-61
2022/03/06 09:17:19;;;;;;;32.47;20.05;;;2.40;99.90;;;;;;5040607;28;20061;-62
2022/03/06 09:19:46;;;;;;;31.30;19.50;;;;;;;;;;5045650;28;20185;-62
2022/03/06 09:22:13;;;;;;;31.17;19.42;;;;;;;;;;5055223;28;20034;-62
2022/03/06 09:24:38;;;;;;;29.60;18.77;;;2.70;99.90;;;;;;5044758;28;20522;-60
2022/03/06 09:27:04;;;;;;;29.13;19.60;;;2.70;99.90;;;;;;5046882;28;20024;-62
2022/03/06 09:29:30;;;;;;;29.40;18.50;;;2.70;99.90;;;;;;5043023;28;20025;-62
2022/03/06 09:31:56;;;;;;;31.48;19.27;;;;;;;;;;5046457;28;20028;-61
2022/03/06 09:34:24;;;;;;;29.63;19.08;;;;;;;;;;5042483;28;20051;-62
2022/03/06 09:36:52;;;;;;;28.13;18.75;;;;;;;;;;5041002;28;20031;-62
2022/03/06 09:39:19;;;;;;;31.98;19.25;;;;;;;;;;5038632;28;20067;-60
2022/03/06 09:41:48;;;;;;;29.63;18.38;;;3.30;99.90;;;;;;5044877;28;20090;-61
2022/03/06 09:44:14;;;;;;;31.92;17.73;;;3.10;99.90;;;;;;5035083;28;20017;-61
2022/03/06 09:46:41;;;;;;;30.88;18.85;;;;;;;;;;5043036;28;20397;-62
2022/03/06 09:49:08;;;;;;;29.25;18.02;;;3.10;99.90;;;;;;5032591;28;20037;-62
2022/03/06 09:51:35;;;;;;;29.77;19.10;;;3.30;99.90;;;;;;5037769;28;20037;-62
2022/03/06 09:54:03;;;;;;;28.88;18.08;;;;;;;;;;5031197;28;20036;-62
2022/03/06 09:56:32;;;;;;;29.88;18.33;;;;;;;;;;5039347;28;20220;-62
2022/03/06 09:59:00;;;;;;;27.40;18.55;;;;;;;;;;5042493;28;20472;-62
2022/03/06 10:01:27;;;;;;;27.48;18.27;;;;;;;;;;5043759;28;20021;-62
2022/03/06 10:03:54;;;;;;;26.83;18.35;;;;;;;;;;5036048;28;20033;-60
2022/03/06 10:06:21;;;;;;;26.38;18.13;;;;;;;;;;5039335;28;20111;-62
2022/03/06 10:08:47;;;;;;;75.20;44.95;;;;;;;;;;5040676;28;20125;-62
2022/03/06 10:11:14;;;;;;;34.35;21.25;;;;;;;;;;5040550;28;20456;-62
2022/03/06 10:13:44;;;;;;;26.63;17.27;;;;;;;;;;5037315;28;20031;-62
2022/03/06 10:16:14;;;;;;;23.85;17.13;;;;;;;;;;5042356;28;20040;-62
2022/03/06 10:18:42;;;;;;;26.63;18.35;;;;;;;;;;5041248;28;20123;-62
2022/03/06 10:21:13;;;;;;;29.42;18.05;;;;;;;;;;5042772;28;20561;-61
2022/03/06 10:23:41;;;;;;;25.65;17.58;;;;;;;;;;5042837;28;20029;-62
2022/03/06 10:26:10;;;;;;;26.45;16.10;;;;;;;;;;5042068;28;20142;-62
2022/03/06 10:28:47;;;;;;;26.73;16.25;;;;;;;;;;5051109;28;20029;-62
2022/03/06 10:31:14;;;;;;;26.55;17.33;;;;;;;;;;5040419;28;20025;-60
2022/03/06 10:33:41;;;;;;;25.80;17.60;;;;;;;;;;5052256;28;20093;-61
2022/03/06 10:36:09;;;;;;;25.52;17.45;;;;;;;;;;5042990;28;20594;-62
2022/03/06 10:38:37;;;;;;;26.13;17.67;;;;;;;;;;5036037;28;20025;-61
2022/03/06 10:41:11;;;;;;;29.50;17.80;;;;;;;;;;5052887;28;20025;-62
2022/03/06 10:43:40;;;;;;;23.98;16.30;;;;;;;;;;5043578;28;20421;-60
2022/03/06 10:46:07;;;;;;;23.48;15.95;;;;;;;;;;5041292;28;20427;-59
2022/03/06 10:48:35;;;;;;;22.35;16.02;;;;;;;;;;5035542;28;20856;-59
2022/03/06 10:51:04;;;;;;;20.90;14.27;;;;;;;;;;5036821;28;20029;-61
2022/03/06 10:53:31;;;;;;;23.60;15.35;;;;;;;;;;5037116;28;20473;-61
2022/03/06 10:56:08;;;;;;;21.90;15.73;;;;;;;;;;5047581;28;20024;-60
2022/03/06 10:58:37;;;;;;;21.15;14.80;;;5.00;99.90;;;;;;5038011;28;20028;-60
2022/03/06 11:01:03;;;;;;;21.33;14.48;;;5.30;99.90;;;;;;5045237;28;20683;-62
2022/03/06 11:03:35;;;;;;;22.85;15.35;;;5.40;99.90;;;;;;5041256;28;20465;-62
2022/03/06 11:06:05;;;;;;;22.13;14.50;;;5.50;99.90;;;;;;5034356;28;20027;-62
2022/03/06 11:08:32;;;;;;;23.20;15.80;;;5.40;99.90;;;;;;5033751;28;20361;-60
2022/03/06 11:10:58;;;;;;;22.48;15.00;;;5.50;99.90;;;;;;5039014;28;20402;-61
2022/03/06 11:13:24;;;;;;;23.50;15.30;;;5.60;99.90;;;;;;5043808;28;20021;-61
2022/03/06 11:15:50;;;;;;;23.30;14.77;;;5.60;99.90;;;;;;5045526;28;20024;-61
2022/03/06 11:18:16;;;;;;;23.42;15.43;;;5.60;99.90;;;;;;5042870;28;20116;-62
2022/03/06 11:20:44;;;;;;;20.60;13.80;;;5.60;99.90;;;;;;5037784;28;20489;-62
2022/03/06 11:23:19;;;;;;;20.67;14.23;;;5.80;99.90;;;;;;5037444;28;20111;-61
2022/03/06 11:26:13;;;;;;;20.02;14.15;;;5.90;99.90;;;;;;5039189;28;20029;-61
2022/03/06 11:29:13;;;;;;;22.10;15.00;;;6.10;99.90;;;;;;5044123;28;20034;-61
2022/03/06 11:31:46;;;;;;;19.77;13.43;;;5.90;99.90;;;;;;5033769;28;20059;-61
2022/03/06 11:34:20;;;;;;;;;;;5.80;99.90;;;;;;5030113;28;20072;-62
2022/03/06 11:36:47;;;;;;;19.95;14.07;;;5.90;99.90;;;;;;5037414;28;19913;-62
2022/03/06 11:39:31;;;;;;;19.58;13.43;;;6.00;99.90;;;;;;5037488;28;20163;-62
2022/03/06 11:42:02;;;;;;;20.00;13.13;;;5.90;99.90;;;;;;5039153;28;20368;-61
2022/03/06 11:44:51;;;;;;;18.13;13.48;;;6.00;99.90;;;;;;5034266;28;20017;-62
2022/03/06 11:47:37;;;;;;;18.75;12.90;;;6.10;99.90;;;;;;5030066;28;20382;-60
2022/03/06 11:50:03;;;;;;;20.35;12.13;;;5.90;99.90;;;;;;5033680;28;20778;-62
2022/03/06 11:52:34;;;;;;;18.92;12.13;;;5.90;99.90;;;;;;5044955;28;20493;-60
2022/03/06 11:55:01;;;;;;;17.63;12.68;;;6.00;99.90;;;;;;5037711;28;20025;-62
2022/03/06 11:57:38;;;;;;;20.85;12.40;;;6.10;99.90;;;;;;5046728;28;20025;-60
2022/03/06 12:00:20;;;;;;;17.45;11.35;;;6.40;99.90;;;;;;5040514;28;20025;-61
2022/03/06 12:02:52;;;;;;;18.17;12.02;;;6.40;99.90;;;;;;5039289;28;20032;-61
2022/03/06 12:05:20;;;;;;;17.55;11.55;;;6.40;99.90;;;;;;5029643;28;20559;-62
2022/03/06 12:07:47;;;;;;;18.88;10.55;;;6.40;99.90;;;;;;5036891;28;20065;-61
2022/03/06 12:10:14;;;;;;;14.98;10.90;;;6.60;99.90;;;;;;5040132;28;20447;-60
2022/03/06 12:12:41;;;;;;;18.23;12.13;;;6.60;99.90;;;;;;5038147;28;20694;-60
2022/03/06 12:15:14;;;;;;;16.65;11.48;;;6.50;99.90;;;;;;5045299;28;20491;-62
2022/03/06 12:17:40;;;;;;;16.95;11.90;;;6.50;99.90;;;;;;5037707;28;20485;-62
2022/03/06 12:20:08;;;;;;;19.30;11.95;;;6.50;99.90;;;;;;5041849;28;20032;-61
2022/03/06 12:22:55;;;;;;;19.27;12.05;;;6.60;99.90;;;;;;5034516;28;20537;-61
2022/03/06 12:25:29;;;;;;;17.77;13.30;;;6.80;99.90;;;;;;5039646;28;20025;-62
2022/03/06 12:28:16;;;;;;;16.77;12.20;;;6.70;99.90;;;;;;5044841;28;20486;-62
2022/03/06 12:30:42;;;;;;;17.13;11.60;;;6.90;99.90;;;;;;5050712;28;20021;-61
2022/03/06 12:33:27;;;;;;;18.20;12.38;;;7.10;99.90;;;;;;5047611;28;20033;-62
2022/03/06 12:36:13;;;;;;;18.67;13.98;;;7.00;99.90;;;;;;5039476;28;20571;-62
2022/03/06 12:38:40;;;;;;;15.45;10.82;;;7.20;99.90;;;;;;5039477;28;20029;-62
2022/03/06 12:41:12;;;;;;;17.00;12.60;;;7.30;99.90;;;;;;5038277;28;20032;-62
2022/03/06 12:43:46;;;;;;;17.52;12.93;;;7.10;99.90;;;;;;5046956;28;20021;-61
2022/03/06 12:46:13;;;;;;;19.08;12.77;;;7.00;99.90;;;;;;5040926;28;20025;-62
2022/03/06 12:48:38;;;;;;;18.67;14.27;;;6.90;99.90;;;;;;5045071;28;20652;-61
2022/03/06 12:51:04;;;;;;;18.95;15.13;;;6.80;99.90;;;;;;5040086;28;20120;-61
2022/03/06 12:53:29;;;;;;;17.20;13.07;;;6.80;99.90;;;;;;5038634;28;20029;-61
2022/03/06 12:55:57;;;;;;;15.82;11.98;;;6.60;99.90;;;;;;5035719;28;20021;-61
2022/03/06 12:58:35;;;;;;;16.90;12.50;;;6.70;99.90;;;;;;5043441;28;20083;-62
2022/03/06 13:01:07;;;;;;;22.70;16.38;;;6.70;99.90;;;;;;5043207;28;20021;-61